sensor_id;sensor_type;location;lat;lon;timestamp;pressure;altitude;pressure_sealevel;temperature;humidity
59168;BME280;70412;55.048;73.268;2024-03-06T00:03:57;100222.53;;;-10.50;100.00
59168;BME280;70412;55.048;73.268;2024-03-06T00:07:00;100237.69;;;-10.53;100.00
59168;BME280;70412;55.048;73.268;2024-03-06T00:10:03;100237.59;;;-10.59;100.00
59168;BME280;70412;55.048;73.268;2024-03-06T00:13:07;100230.78;;;-10.63;100.00
59168;BME280;70412;55.048;73.268;2024-03-06T00:16:34;100239.19;;;-10.67;100.00
59168;BME280;70412;55.048;73.268;2024-03-06T00:19:36;100229.00;;;-10.71;100.00
59168;BME280;70412;55.048;73.268;2024-03-06T00:22:39;100220.56;;;-10.69;100.00
59168;BME280;70412;55.048;73.268;2024-03-06T00:30:35;100225.78;;;-10.59;100.00
59168;BME280;70412;55.048;73.268;2024-03-06T00:33:50;100239.13;;;-10.72;100.00
59168;BME280;70412;55.048;73.268;2024-03-06T00:36:53;100237.34;;;-10.78;100.00
59168;BME280;70412;55.048;73.268;2024-03-06T00:39:56;100231.38;;;-10.83;100.00
59168;BME280;70412;55.048;73.268;2024-03-06T00:44:19;100238.84;;;-10.90;100.00
59168;BME280;70412;55.048;73.268;2024-03-06T00:52:21;100232.03;;;-10.93;100.00
59168;BME280;70412;55.048;73.268;2024-03-06T00:55:24;100213.28;;;-11.07;100.00
59168;BME280;70412;55.048;73.268;2024-03-06T00:58:26;100226.66;;;-11.14;100.00
59168;BME280;70412;55.048;73.268;2024-03-06T01:01:28;100234.00;;;-11.31;100.00
59168;BME280;70412;55.048;73.268;2024-03-06T01:08:25;100235.25;;;-11.57;100.00
59168;BME280;70412;55.048;73.268;2024-03-06T01:11:28;100244.41;;;-11.64;100.00
59168;BME280;70412;55.048;73.268;2024-03-06T01:14:31;100255.22;;;-11.73;100.00
59168;BME280;70412;55.048;73.268;2024-03-06T01:17:34;100237.94;;;-11.94;100.00
59168;BME280;70412;55.048;73.268;2024-03-06T01:20:57;100264.25;;;-11.85;100.00
59168;BME280;70412;55.048;73.268;2024-03-06T01:24:01;100270.91;;;-11.90;100.00
59168;BME280;70412;55.048;73.268;2024-03-06T01:27:16;100275.84;;;-11.95;100.00
59168;BME280;70412;55.048;73.268;2024-03-06T01:30:59;100282.78;;;-11.86;100.00
59168;BME280;70412;55.048;73.268;2024-03-06T01:34:02;100268.38;;;-11.90;100.00
59168;BME280;70412;55.048;73.268;2024-03-06T01:37:04;100273.31;;;-11.95;100.00
59168;BME280;70412;55.048;73.268;2024-03-06T01:42:36;100267.34;;;-11.55;100.00
59168;BME280;70412;55.048;73.268;2024-03-06T01:45:39;100287.31;;;-11.70;100.00
59168;BME280;70412;55.048;73.268;2024-03-06T01:48:42;100280.50;;;-11.73;100.00
59168;BME280;70412;55.048;73.268;2024-03-06T01:51:48;100282.28;;;-11.67;100.00
59168;BME280;70412;55.048;73.268;2024-03-06T01:54:52;100280.59;;;-11.68;100.00
59168;BME280;70412;55.048;73.268;2024-03-06T01:57:55;100291.63;;;-11.63;100.00
59168;BME280;70412;55.048;73.268;2024-03-06T02:04:53;100297.72;;;-11.55;100.00
59168;BME280;70412;55.048;73.268;2024-03-06T02:07:57;100294.34;;;-11.54;100.00
59168;BME280;70412;55.048;73.268;2024-03-06T02:14:48;100252.34;;;-11.44;100.00
59168;BME280;70412;55.048;73.268;2024-03-06T02:17:53;100276.38;;;-11.21;100.00
59168;BME280;70412;55.048;73.268;2024-03-06T02:20:55;100283.22;;;-11.14;100.00
59168;BME280;70412;55.048;73.268;2024-03-06T02:23:58;100279.00;;;-11.13;100.00
59168;BME280;70412;55.048;73.268;2024-03-06T02:27:00;100282.38;;;-11.13;100.00
59168;BME280;70412;55.048;73.268;2024-03-06T02:30:03;100277.38;;;-11.08;100.00
59168;BME280;70412;55.048;73.268;2024-03-06T02:33:06;100286.78;;;-11.03;100.00
59168;BME280;70412;55.048;73.268;2024-03-06T02:36:19;100296.91;;;-11.03;100.00
59168;BME280;70412;55.048;73.268;2024-03-06T02:39:21;100303.03;;;-10.90;100.00
59168;BME280;70412;55.048;73.268;2024-03-06T02:42:35;100296.19;;;-10.94;100.00
59168;BME280;70412;55.048;73.268;2024-03-06T02:45:38;100310.69;;;-10.87;100.00
59168;BME280;70412;55.048;73.268;2024-03-06T02:48:40;100318.31;;;-10.85;100.00
59168;BME280;70412;55.048;73.268;2024-03-06T02:51:42;100309.81;;;-10.89;100.00
59168;BME280;70412;55.048;73.268;2024-03-06T02:54:45;100314.13;;;-10.82;100.00
59168;BME280;70412;55.048;73.268;2024-03-06T02:57:48;100313.56;;;-10.65;100.00
59168;BME280;70412;55.048;73.268;2024-03-06T03:00:51;100314.44;;;-10.62;100.00
59168;BME280;70412;55.048;73.268;2024-03-06T03:03:54;100306.13;;;-10.55;100.00
59168;BME280;70412;55.048;73.268;2024-03-06T03:07:21;100304.56;;;-10.44;100.00
59168;BME280;70412;55.048;73.268;2024-03-06T03:10:23;100308.97;;;-10.33;100.00
59168;BME280;70412;55.048;73.268;2024-03-06T03:13:27;100311.88;;;-10.06;100.00
59168;BME280;70412;55.048;73.268;2024-03-06T03:21:08;100301.41;;;-9.59;100.00
59168;BME280;70412;55.048;73.268;2024-03-06T03:24:11;100316.78;;;-9.48;100.00
59168;BME280;70412;55.048;73.268;2024-03-06T03:27:17;100315.38;;;-9.19;100.00
59168;BME280;70412;55.048;73.268;2024-03-06T03:30:20;100313.81;;;-9.05;100.00
59168;BME280;70412;55.048;73.268;2024-03-06T03:35:35;100318.97;;;-8.96;100.00
59168;BME280;70412;55.048;73.268;2024-03-06T03:38:39;100318.94;;;-9.00;100.00
59168;BME280;70412;55.048;73.268;2024-03-06T03:41:45;100314.59;;;-9.09;100.00
59168;BME280;70412;55.048;73.268;2024-03-06T03:44:48;100317.97;;;-9.10;100.00
59168;BME280;70412;55.048;73.268;2024-03-06T03:47:50;100313.69;;;-9.17;100.00
59168;BME280;70412;55.048;73.268;2024-03-06T03:50:53;100327.22;;;-9.20;100.00
59168;BME280;70412;55.048;73.268;2024-03-06T03:53:56;100311.88;;;-9.29;100.00
59168;BME280;70412;55.048;73.268;2024-03-06T03:56:59;100323.56;;;-9.46;100.00
59168;BME280;70412;55.048;73.268;2024-03-06T04:00:01;100325.28;;;-9.46;100.00
59168;BME280;70412;55.048;73.268;2024-03-06T04:07:10;100327.06;;;-9.33;100.00
59168;BME280;70412;55.048;73.268;2024-03-06T04:10:13;100332.22;;;-9.27;100.00
59168;BME280;70412;55.048;73.268;2024-03-06T04:13:16;100293.09;;;-9.47;100.00
59168;BME280;70412;55.048;73.268;2024-03-06T04:16:18;100329.09;;;-9.00;100.00
59168;BME280;70412;55.048;73.268;2024-03-06T04:22:41;100313.66;;;-9.20;99.23
59168;BME280;70412;55.048;73.268;2024-03-06T04:25:44;100314.56;;;-9.13;99.54
59168;BME280;70412;55.048;73.268;2024-03-06T04:28:46;100325.78;;;-8.92;100.00
59168;BME280;70412;55.048;73.268;2024-03-06T04:31:49;100320.66;;;-8.98;97.94
59168;BME280;70412;55.048;73.268;2024-03-06T04:36:08;100321.50;;;-8.99;97.26
59168;BME280;70412;55.048;73.268;2024-03-06T04:39:10;100323.28;;;-8.89;98.11
59168;BME280;70412;55.048;73.268;2024-03-06T04:42:14;100321.66;;;-8.76;96.68
59168;BME280;70412;55.048;73.268;2024-03-06T04:45:56;100321.00;;;-8.55;97.10
59168;BME280;70412;55.048;73.268;2024-03-06T04:48:59;100321.44;;;-7.82;97.78
59168;BME280;70412;55.048;73.268;2024-03-06T04:52:02;100322.34;;;-7.68;94.22
59168;BME280;70412;55.048;73.268;2024-03-06T04:55:07;100317.31;;;-7.40;92.94
59168;BME280;70412;55.048;73.268;2024-03-06T04:58:12;100317.38;;;-7.19;91.80
59168;BME280;70412;55.048;73.268;2024-03-06T05:01:15;100310.56;;;-6.89;91.42
59168;BME280;70412;55.048;73.268;2024-03-06T05:04:18;100284.25;;;-6.81;89.50
59168;BME280;70412;55.048;73.268;2024-03-06T05:07:20;100314.00;;;-6.64;86.29
59168;BME280;70412;55.048;73.268;2024-03-06T05:13:26;100309.75;;;-6.91;86.68
59168;BME280;70412;55.048;73.268;2024-03-06T05:16:29;100302.94;;;-6.88;85.94
59168;BME280;70412;55.048;73.268;2024-03-06T05:19:31;100297.84;;;-6.50;85.18
59168;BME280;70412;55.048;73.268;2024-03-06T05:22:34;100301.22;;;-6.41;83.43
59168;BME280;70412;55.048;73.268;2024-03-06T05:27:06;100296.94;;;-6.18;83.03
59168;BME280;70412;55.048;73.268;2024-03-06T05:30:51;100304.44;;;-5.69;81.81
59168;BME280;70412;55.048;73.268;2024-03-06T05:33:54;100298.06;;;-5.00;80.79
59168;BME280;70412;55.048;73.268;2024-03-06T05:36:56;100301.00;;;-4.44;78.11
59168;BME280;70412;55.048;73.268;2024-03-06T05:40:01;100272.81;;;-4.41;75.88
59168;BME280;70412;55.048;73.268;2024-03-06T05:43:06;100293.94;;;-4.19;73.58
59168;BME280;70412;55.048;73.268;2024-03-06T05:46:09;100289.84;;;-4.34;73.42
59168;BME280;70412;55.048;73.268;2024-03-06T05:49:11;100299.88;;;-4.14;71.48
59168;BME280;70412;55.048;73.268;2024-03-06T05:52:14;100289.69;;;-4.22;71.91
59168;BME280;70412;55.048;73.268;2024-03-06T05:56:01;100296.97;;;-3.18;70.25
59168;BME280;70412;55.048;73.268;2024-03-06T05:59:03;100267.75;;;-3.09;68.08
59168;BME280;70412;55.048;73.268;2024-03-06T06:02:06;100292.88;;;-3.31;66.80
59168;BME280;70412;55.048;73.268;2024-03-06T06:06:00;100262.63;;;-3.09;66.16
59168;BME280;70412;55.048;73.268;2024-03-06T06:09:03;100273.19;;;-2.75;66.53
59168;BME280;70412;55.048;73.268;2024-03-06T06:12:09;100284.50;;;-2.34;66.49
59168;BME280;70412;55.048;73.268;2024-03-06T06:16:00;100275.44;;;-2.55;62.01
59168;BME280;70412;55.048;73.268;2024-03-06T06:19:06;100272.41;;;-2.78;63.84
59168;BME280;70412;55.048;73.268;2024-03-06T06:22:12;100278.03;;;-2.57;64.03
59168;BME280;70412;55.048;73.268;2024-03-06T06:26:08;100286.78;;;-2.21;62.34
59168;BME280;70412;55.048;73.268;2024-03-06T06:29:12;100261.63;;;-2.99;60.87
59168;BME280;70412;55.048;73.268;2024-03-06T06:32:15;100284.66;;;-3.56;61.86
59168;BME280;70412;55.048;73.268;2024-03-06T06:39:30;100273.16;;;-2.73;63.26
59168;BME280;70412;55.048;73.268;2024-03-06T06:42:36;100277.19;;;-2.57;61.38
59168;BME280;70412;55.048;73.268;2024-03-06T06:45:40;100270.06;;;-2.41;62.37
59168;BME280;70412;55.048;73.268;2024-03-06T06:48:43;100265.19;;;-2.09;61.26
59168;BME280;70412;55.048;73.268;2024-03-06T06:51:47;100269.88;;;-1.87;60.69
59168;BME280;70412;55.048;73.268;2024-03-06T06:54:53;100260.44;;;-2.30;59.46
59168;BME280;70412;55.048;73.268;2024-03-06T07:02:31;100259.22;;;-1.69;60.20
59168;BME280;70412;55.048;73.268;2024-03-06T07:05:45;100253.59;;;-1.86;59.33
59168;BME280;70412;55.048;73.268;2024-03-06T07:08:48;100254.63;;;-1.95;59.73
59168;BME280;70412;55.048;73.268;2024-03-06T07:11:51;100252.28;;;-2.07;60.00
59168;BME280;70412;55.048;73.268;2024-03-06T07:16:10;100248.22;;;-2.17;60.01
59168;BME280;70412;55.048;73.268;2024-03-06T07:21:18;100247.50;;;-1.81;58.98
59168;BME280;70412;55.048;73.268;2024-03-06T07:26:18;100248.25;;;-1.37;58.76
59168;BME280;70412;55.048;73.268;2024-03-06T07:30:05;100227.69;;;-1.39;58.12
59168;BME280;70412;55.048;73.268;2024-03-06T07:33:09;100234.94;;;-1.56;58.02
59168;BME280;70412;55.048;73.268;2024-03-06T07:36:11;100239.84;;;-1.84;59.16
59168;BME280;70412;55.048;73.268;2024-03-06T07:39:22;100216.50;;;-2.18;59.90
59168;BME280;70412;55.048;73.268;2024-03-06T07:42:25;100236.75;;;-2.01;60.18
59168;BME280;70412;55.048;73.268;2024-03-06T07:45:28;100241.94;;;-2.04;60.30
59168;BME280;70412;55.048;73.268;2024-03-06T07:48:31;100226.09;;;-2.26;59.95
59168;BME280;70412;55.048;73.268;2024-03-06T07:51:34;100236.22;;;-2.17;60.84
59168;BME280;70412;55.048;73.268;2024-03-06T07:54:58;100223.78;;;-2.40;61.12
59168;BME280;70412;55.048;73.268;2024-03-06T07:58:01;100221.75;;;-2.69;61.14
59168;BME280;70412;55.048;73.268;2024-03-06T08:01:03;100226.31;;;-2.85;62.41
59168;BME280;70412;55.048;73.268;2024-03-06T08:04:06;100225.34;;;-2.31;62.85
59168;BME280;70412;55.048;73.268;2024-03-06T08:07:09;100216.69;;;-1.82;62.13
59168;BME280;70412;55.048;73.268;2024-03-06T08:10:13;100202.47;;;-2.02;61.71
59168;BME280;70412;55.048;73.268;2024-03-06T08:13:16;100220.31;;;-1.54;61.50
59168;BME280;70412;55.048;73.268;2024-03-06T08:16:21;100217.41;;;-1.39;60.61
59168;BME280;70412;55.048;73.268;2024-03-06T08:20:50;100185.97;;;-1.51;60.20
59168;BME280;70412;55.048;73.268;2024-03-06T08:23:55;100193.63;;;-1.48;60.41
59168;BME280;70412;55.048;73.268;2024-03-06T08:26:57;100196.25;;;-1.51;60.36
59168;BME280;70412;55.048;73.268;2024-03-06T08:30:00;100198.50;;;-1.75;60.34
59168;BME280;70412;55.048;73.268;2024-03-06T08:33:02;100198.72;;;-1.84;61.36
59168;BME280;70412;55.048;73.268;2024-03-06T08:36:05;100181.53;;;-1.82;61.62
59168;BME280;70412;55.048;73.268;2024-03-06T08:39:08;100203.00;;;-1.46;61.28
59168;BME280;70412;55.048;73.268;2024-03-06T08:42:14;100196.41;;;-1.57;60.80
59168;BME280;70412;55.048;73.268;2024-03-06T08:48:44;100186.34;;;-1.67;62.33
59168;BME280;70412;55.048;73.268;2024-03-06T08:51:46;100180.72;;;-1.85;61.91
59168;BME280;70412;55.048;73.268;2024-03-06T08:55:05;100191.91;;;-1.88;63.07
59168;BME280;70412;55.048;73.268;2024-03-06T08:58:08;100187.00;;;-1.58;63.30
59168;BME280;70412;55.048;73.268;2024-03-06T09:01:10;100186.03;;;-1.93;63.14
59168;BME280;70412;55.048;73.268;2024-03-06T09:07:15;100179.97;;;-1.52;62.94
59168;BME280;70412;55.048;73.268;2024-03-06T09:10:24;100170.75;;;-1.99;63.64
59168;BME280;70412;55.048;73.268;2024-03-06T09:13:27;100176.81;;;-2.03;64.85
59168;BME280;70412;55.048;73.268;2024-03-06T09:16:29;100178.25;;;-1.90;65.06
59168;BME280;70412;55.048;73.268;2024-03-06T09:23:23;100184.03;;;-2.21;65.18
59168;BME280;70412;55.048;73.268;2024-03-06T09:26:26;100184.16;;;-2.27;65.59
59168;BME280;70412;55.048;73.268;2024-03-06T09:29:28;100185.00;;;-2.26;66.32
59168;BME280;70412;55.048;73.268;2024-03-06T09:32:31;100182.53;;;-2.31;66.15
59168;BME280;70412;55.048;73.268;2024-03-06T09:36:47;100182.88;;;-2.95;66.22
59168;BME280;70412;55.048;73.268;2024-03-06T09:39:50;100166.66;;;-3.53;68.46
59168;BME280;70412;55.048;73.268;2024-03-06T09:42:53;100178.59;;;-3.49;70.23
59168;BME280;70412;55.048;73.268;2024-03-06T09:45:56;100174.34;;;-3.50;70.76
59168;BME280;70412;55.048;73.268;2024-03-06T09:48:59;100178.72;;;-3.58;71.41
59168;BME280;70412;55.048;73.268;2024-03-06T09:52:02;100175.50;;;-3.72;71.62
59168;BME280;70412;55.048;73.268;2024-03-06T09:55:51;100161.16;;;-3.82;73.74
59168;BME280;70412;55.048;73.268;2024-03-06T09:58:54;100161.22;;;-3.88;73.71
59168;BME280;70412;55.048;73.268;2024-03-06T10:01:57;100190.00;;;-3.71;73.77
59168;BME280;70412;55.048;73.268;2024-03-06T10:05:03;100182.75;;;-4.03;74.18
59168;BME280;70412;55.048;73.268;2024-03-06T10:08:07;100174.41;;;-4.17;75.54
59168;BME280;70412;55.048;73.268;2024-03-06T10:14:10;100174.88;;;-3.88;75.82
59168;BME280;70412;55.048;73.268;2024-03-06T10:17:19;100186.81;;;-3.85;75.52
59168;BME280;70412;55.048;73.268;2024-03-06T10:20:27;100187.00;;;-4.00;76.29
59168;BME280;70412;55.048;73.268;2024-03-06T10:23:30;100196.13;;;-4.50;76.10
59168;BME280;70412;55.048;73.268;2024-03-06T10:30:02;100190.63;;;-4.97;79.29
59168;BME280;70412;55.048;73.268;2024-03-06T10:33:05;100188.06;;;-4.98;81.26
59168;BME280;70412;55.048;73.268;2024-03-06T10:36:10;100179.50;;;-4.94;81.49
59168;BME280;70412;55.048;73.268;2024-03-06T10:39:17;100171.84;;;-4.96;81.91
59168;BME280;70412;55.048;73.268;2024-03-06T10:46:19;100163.88;;;-4.67;81.28
59168;BME280;70412;55.048;73.268;2024-03-06T10:49:25;100154.72;;;-4.90;81.00
59168;BME280;70412;55.048;73.268;2024-03-06T10:52:57;100157.41;;;-5.04;82.49
59168;BME280;70412;55.048;73.268;2024-03-06T10:56:14;100161.53;;;-4.89;82.90
59168;BME280;70412;55.048;73.268;2024-03-06T10:59:18;100159.69;;;-4.74;83.29
59168;BME280;70412;55.048;73.268;2024-03-06T11:03:43;100158.09;;;-4.84;82.85
59168;BME280;70412;55.048;73.268;2024-03-06T11:06:47;100164.91;;;-4.83;83.45
59168;BME280;70412;55.048;73.268;2024-03-06T11:09:50;100165.78;;;-4.87;84.47
59168;BME280;70412;55.048;73.268;2024-03-06T11:12:53;100160.75;;;-4.96;84.40
59168;BME280;70412;55.048;73.268;2024-03-06T11:15:59;100135.34;;;-5.11;85.45
59168;BME280;70412;55.048;73.268;2024-03-06T11:19:07;100163.34;;;-4.98;86.41
59168;BME280;70412;55.048;73.268;2024-03-06T11:28:53;100166.19;;;-5.31;88.61
59168;BME280;70412;55.048;73.268;2024-03-06T11:32:06;100152.59;;;-5.38;89.05
59168;BME280;70412;55.048;73.268;2024-03-06T11:35:12;100149.22;;;-5.43;90.05
59168;BME280;70412;55.048;73.268;2024-03-06T11:43:48;100149.34;;;-5.58;90.45
59168;BME280;70412;55.048;73.268;2024-03-06T11:47:08;100139.31;;;-5.86;90.40
59168;BME280;70412;55.048;73.268;2024-03-06T11:50:11;100136.88;;;-6.08;92.01
59168;BME280;70412;55.048;73.268;2024-03-06T11:53:14;100140.34;;;-6.17;92.82
59168;BME280;70412;55.048;73.268;2024-03-06T11:59:31;100132.78;;;-6.41;94.79
59168;BME280;70412;55.048;73.268;2024-03-06T12:02:36;100131.06;;;-6.30;95.41
59168;BME280;70412;55.048;73.268;2024-03-06T12:05:39;100129.34;;;-6.30;95.93
59168;BME280;70412;55.048;73.268;2024-03-06T12:08:41;100127.66;;;-6.32;96.43
59168;BME280;70412;55.048;73.268;2024-03-06T12:15:36;100127.63;;;-6.20;96.94
59168;BME280;70412;55.048;73.268;2024-03-06T12:18:59;100117.44;;;-6.32;97.18
59168;BME280;70412;55.048;73.268;2024-03-06T12:22:03;100108.13;;;-6.44;98.08
59168;BME280;70412;55.048;73.268;2024-03-06T12:25:06;100097.16;;;-6.63;98.59
59168;BME280;70412;55.048;73.268;2024-03-06T12:28:10;100112.50;;;-6.72;99.54
59168;BME280;70412;55.048;73.268;2024-03-06T12:31:12;100105.69;;;-6.75;100.00
59168;BME280;70412;55.048;73.268;2024-03-06T12:34:15;100118.47;;;-6.78;100.00
59168;BME280;70412;55.048;73.268;2024-03-06T12:39:15;100118.31;;;-6.39;100.00
59168;BME280;70412;55.048;73.268;2024-03-06T12:43:04;100114.97;;;-6.55;100.00
59168;BME280;70412;55.048;73.268;2024-03-06T12:46:23;100085.38;;;-6.90;100.00
59168;BME280;70412;55.048;73.268;2024-03-06T12:49:25;100107.44;;;-6.84;100.00
59168;BME280;70412;55.048;73.268;2024-03-06T12:52:29;100111.75;;;-6.97;100.00
59168;BME280;70412;55.048;73.268;2024-03-06T12:55:31;100124.50;;;-6.97;100.00
59168;BME280;70412;55.048;73.268;2024-03-06T12:58:34;100105.84;;;-7.13;100.00
59168;BME280;70412;55.048;73.268;2024-03-06T13:01:39;100108.41;;;-7.14;100.00
59168;BME280;70412;55.048;73.268;2024-03-06T13:04:57;100109.25;;;-7.26;100.00
59168;BME280;70412;55.048;73.268;2024-03-06T13:08:46;100114.38;;;-7.44;100.00
59168;BME280;70412;55.048;73.268;2024-03-06T13:11:49;100112.69;;;-7.54;100.00
59168;BME280;70412;55.048;73.268;2024-03-06T13:14:52;100115.25;;;-7.54;100.00
59168;BME280;70412;55.048;73.268;2024-03-06T13:19:00;100117.78;;;-7.70;100.00
59168;BME280;70412;55.048;73.268;2024-03-06T13:22:05;100093.97;;;-7.93;100.00
59168;BME280;70412;55.048;73.268;2024-03-06T13:25:09;100110.09;;;-7.76;100.00
59168;BME280;70412;55.048;73.268;2024-03-06T13:28:12;100089.72;;;-7.94;100.00
59168;BME280;70412;55.048;73.268;2024-03-06T13:31:27;100121.16;;;-7.77;100.00
59168;BME280;70412;55.048;73.268;2024-03-06T13:34:29;100118.59;;;-7.80;100.00
59168;BME280;70412;55.048;73.268;2024-03-06T13:38:10;100117.75;;;-7.85;100.00
59168;BME280;70412;55.048;73.268;2024-03-06T13:41:13;100116.06;;;-7.83;100.00
59168;BME280;70412;55.048;73.268;2024-03-06T13:44:16;100107.56;;;-7.82;100.00
59168;BME280;70412;55.048;73.268;2024-03-06T13:49:36;100106.72;;;-7.46;100.00
59168;BME280;70412;55.048;73.268;2024-03-06T13:52:40;100111.81;;;-7.61;100.00
59168;BME280;70412;55.048;73.268;2024-03-06T13:55:43;100110.13;;;-7.63;100.00
59168;BME280;70412;55.048;73.268;2024-03-06T13:58:45;100115.22;;;-7.67;100.00
59168;BME280;70412;55.048;73.268;2024-03-06T14:01:48;100106.72;;;-7.73;100.00
59168;BME280;70412;55.048;73.268;2024-03-06T14:04:51;100104.19;;;-7.81;100.00
59168;BME280;70412;55.048;73.268;2024-03-06T14:08:01;100109.28;;;-7.84;100.00
59168;BME280;70412;55.048;73.268;2024-03-06T14:11:04;100084.66;;;-8.05;100.00
59168;BME280;70412;55.048;73.268;2024-03-06T14:14:09;100104.19;;;-7.82;100.00
59168;BME280;70412;55.048;73.268;2024-03-06T14:17:12;100107.56;;;-7.82;100.00
59168;BME280;70412;55.048;73.268;2024-03-06T14:20:14;100110.94;;;-7.89;100.00
59168;BME280;70412;55.048;73.268;2024-03-06T14:23:32;100102.44;;;-7.91;100.00
59168;BME280;70412;55.048;73.268;2024-03-06T14:26:34;100071.03;;;-8.16;100.00
59168;BME280;70412;55.048;73.268;2024-03-06T14:29:37;100104.16;;;-7.98;100.00
59168;BME280;70412;55.048;73.268;2024-03-06T14:36:43;100102.47;;;-7.97;100.00
59168;BME280;70412;55.048;73.268;2024-03-06T14:39:46;100102.47;;;-7.97;100.00
59168;BME280;70412;55.048;73.268;2024-03-06T14:43:01;100105.84;;;-7.95;100.00
59168;BME280;70412;55.048;73.268;2024-03-06T14:46:07;100093.13;;;-7.95;100.00
59168;BME280;70412;55.048;73.268;2024-03-06T14:49:11;100093.97;;;-7.96;100.00
59168;BME280;70412;55.048;73.268;2024-03-06T14:52:13;100065.97;;;-8.11;100.00
59168;BME280;70412;55.048;73.268;2024-03-06T14:55:16;100100.78;;;-7.80;100.00
59168;BME280;70412;55.048;73.268;2024-03-06T14:58:18;100095.69;;;-7.74;100.00
59168;BME280;70412;55.048;73.268;2024-03-06T15:01:21;100083.81;;;-7.67;100.00
59168;BME280;70412;55.048;73.268;2024-03-06T15:04:23;100085.50;;;-7.58;100.00
59168;BME280;70412;55.048;73.268;2024-03-06T15:09:06;100083.75;;;-7.17;100.00
59168;BME280;70412;55.048;73.268;2024-03-06T15:12:11;100083.78;;;-7.26;100.00
59168;BME280;70412;55.048;73.268;2024-03-06T15:15:16;100073.63;;;-7.38;100.00
59168;BME280;70412;55.048;73.268;2024-03-06T15:18:18;100060.88;;;-7.64;100.00
59168;BME280;70412;55.048;73.268;2024-03-06T15:21:20;100083.81;;;-7.58;100.00
59168;BME280;70412;55.048;73.268;2024-03-06T15:24:23;100082.13;;;-7.67;100.00
59168;BME280;70412;55.048;73.268;2024-03-06T15:28:11;100085.50;;;-7.61;100.00
59168;BME280;70412;55.048;73.268;2024-03-06T15:31:13;100090.59;;;-7.74;100.00
59168;BME280;70412;55.048;73.268;2024-03-06T15:34:16;100098.22;;;-7.81;100.00
59168;BME280;70412;55.048;73.268;2024-03-06T15:38:57;100087.19;;;-7.48;100.00
59168;BME280;70412;55.048;73.268;2024-03-06T15:42:00;100089.75;;;-7.68;100.00
59168;BME280;70412;55.048;73.268;2024-03-06T15:45:03;100081.25;;;-7.79;100.00
59168;BME280;70412;55.048;73.268;2024-03-06T15:48:57;100090.59;;;-7.98;100.00
59168;BME280;70412;55.048;73.268;2024-03-06T15:52:28;100088.88;;;-8.02;100.00
59168;BME280;70412;55.048;73.268;2024-03-06T15:55:31;100082.09;;;-8.03;100.00
59168;BME280;70412;55.048;73.268;2024-03-06T15:58:34;100088.03;;;-8.01;100.00
59168;BME280;70412;55.048;73.268;2024-03-06T16:01:36;100082.94;;;-8.03;100.00
59168;BME280;70412;55.048;73.268;2024-03-06T16:08:47;100084.63;;;-8.14;100.00
59168;BME280;70412;55.048;73.268;2024-03-06T16:11:49;100054.06;;;-8.35;100.00
59168;BME280;70412;55.048;73.268;2024-03-06T16:15:02;100096.50;;;-8.19;100.00
59168;BME280;70412;55.048;73.268;2024-03-06T16:18:05;100088.81;;;-8.31;100.00
59168;BME280;70412;55.048;73.268;2024-03-06T16:21:08;100088.81;;;-8.33;100.00
59168;BME280;70412;55.048;73.268;2024-03-06T16:26:01;100082.97;;;-7.83;100.00
59168;BME280;70412;55.048;73.268;2024-03-06T16:29:04;100080.38;;;-8.07;100.00
59168;BME280;70412;55.048;73.268;2024-03-06T16:32:07;100090.56;;;-8.16;100.00
59168;BME280;70412;55.048;73.268;2024-03-06T16:35:10;100095.59;;;-8.22;100.00
59168;BME280;70412;55.048;73.268;2024-03-06T16:38:13;100094.75;;;-8.28;100.00
59168;BME280;70412;55.048;73.268;2024-03-06T16:41:18;100084.59;;;-8.29;100.00
59168;BME280;70412;55.048;73.268;2024-03-06T16:48:22;100065.03;;;-8.47;100.00
59168;BME280;70412;55.048;73.268;2024-03-06T16:51:25;100084.53;;;-8.41;100.00
59168;BME280;70412;55.048;73.268;2024-03-06T16:54:29;100090.47;;;-8.47;100.00
59168;BME280;70412;55.048;73.268;2024-03-06T16:57:45;100087.88;;;-8.58;100.00
59168;BME280;70412;55.048;73.268;2024-03-06T17:00:56;100096.31;;;-8.69;100.00
59168;BME280;70412;55.048;73.268;2024-03-06T17:03:58;100097.13;;;-8.79;100.00
59168;BME280;70412;55.048;73.268;2024-03-06T17:07:01;100103.03;;;-8.88;100.00
59168;BME280;70412;55.048;73.268;2024-03-06T17:10:14;100103.81;;;-8.94;100.00
59168;BME280;70412;55.048;73.268;2024-03-06T17:13:17;100102.97;;;-8.96;100.00
59168;BME280;70412;55.048;73.268;2024-03-06T17:16:19;100105.41;;;-9.12;100.00
59168;BME280;70412;55.048;73.268;2024-03-06T17:19:22;100105.41;;;-9.11;100.00
59168;BME280;70412;55.048;73.268;2024-03-06T17:24:08;100102.78;;;-9.34;100.00
59168;BME280;70412;55.048;73.268;2024-03-06T17:27:10;100112.91;;;-9.38;100.00
59168;BME280;70412;55.048;73.268;2024-03-06T17:30:13;100088.16;;;-9.64;100.00
59168;BME280;70412;55.048;73.268;2024-03-06T17:33:17;100111.84;;;-9.62;100.00
59168;BME280;70412;55.048;73.268;2024-03-06T17:40:23;100107.34;;;-9.93;100.00
59168;BME280;70412;55.048;73.268;2024-03-06T17:43:27;100093.72;;;-10.06;100.00
59168;BME280;70412;55.048;73.268;2024-03-06T17:47:44;100092.75;;;-10.19;100.00
59168;BME280;70412;55.048;73.268;2024-03-06T17:50:57;100084.16;;;-10.33;100.00
59168;BME280;70412;55.048;73.268;2024-03-06T17:53:59;100102.72;;;-10.34;100.00
59168;BME280;70412;55.048;73.268;2024-03-06T17:57:16;100090.88;;;-10.38;100.00
59168;BME280;70412;55.048;73.268;2024-03-06T18:00:19;100103.44;;;-10.44;100.00
59168;BME280;70412;55.048;73.268;2024-03-06T18:03:22;100097.38;;;-10.58;100.00
59168;BME280;70412;55.048;73.268;2024-03-06T18:06:35;100098.97;;;-10.68;100.00
59168;BME280;70412;55.048;73.268;2024-03-06T18:09:38;100100.50;;;-10.81;100.00